Salt, Spain
Current Conditions -  °F | °C
As of 6:30 AM on Wednesday 22 Oct 2014 (Local Time) from LEGE Reporting Station
Broken Clouds Broken Clouds  
Wind Chill: 59°   Ceiling: 3000
Heat Index: 59°   Visibility: 6mi
Dew Point: 48°   Wind: 13mph
Humidity: 67%   Direction: 40°NE
Pressure: 30.12"   Gusts: NA
Location:  41.97°N, 2.79°E
Report Text: LEGE 220430Z 04011KT 350V080 9999 BKN030 15/09 Q1020
Loading
Personal Weather Stations






























Interactive Weather Map
Tropical Storm Tracking
New forecast layout! Learn more

10-Day Weather Forecast

Advertisements
Track Severe Weather on mobile